createdAt,value
2023-03-17T00:01:20.896Z,5.73
2023-03-17T00:03:50.418Z,5.62
2023-03-17T00:06:24.584Z,5.52
2023-03-17T00:08:51.277Z,5.48
2023-03-17T00:11:18.328Z,5.45
2023-03-17T00:13:46.276Z,5.33
2023-03-17T00:16:25.484Z,5.80
2023-03-17T00:18:53.757Z,5.64
2023-03-17T00:21:32.317Z,5.82
2023-03-17T00:23:59.632Z,5.98
2023-03-17T00:26:27.159Z,5.83
2023-03-17T00:28:54.993Z,5.64
2023-03-17T00:31:25.139Z,5.90
2023-03-17T00:33:53.969Z,5.59
2023-03-17T00:36:24.499Z,5.71
2023-03-17T00:38:52.645Z,5.69
2023-03-17T00:41:19.481Z,5.64
2023-03-17T00:43:46.670Z,5.95
2023-03-17T00:46:14.800Z,5.85
2023-03-17T00:48:43.440Z,5.98
2023-03-17T00:51:11.753Z,5.98
2023-03-17T00:53:38.876Z,5.95
2023-03-17T00:56:14.486Z,6.12
2023-03-17T00:58:42.107Z,6.24
2023-03-17T01:01:09.609Z,5.72
2023-03-17T01:03:37.228Z,6.03
2023-03-17T01:06:07.784Z,6.00
2023-03-17T01:08:34.755Z,5.95
2023-03-17T01:11:02.066Z,5.69
2023-03-17T01:13:29.208Z,5.67
2023-03-17T01:15:57.110Z,5.59
2023-03-17T01:18:23.913Z,5.53
2023-03-17T01:20:51.225Z,5.50
2023-03-17T01:23:18.157Z,5.33
2023-03-17T01:25:45.565Z,5.60
2023-03-17T01:28:18.585Z,5.42
2023-03-17T01:30:46.968Z,5.48
2023-03-17T01:33:14.674Z,5.43
2023-03-17T01:35:43.830Z,5.37
2023-03-17T01:38:11.284Z,5.33
2023-03-17T01:40:43.951Z,5.39
2023-03-17T01:43:10.460Z,5.23
2023-03-17T01:46:12.722Z,5.20
2023-03-17T01:49:12.706Z,5.05
2023-03-17T01:51:57.525Z,5.00
2023-03-17T01:54:40.065Z,5.07
2023-03-17T01:57:14.773Z,5.06
2023-03-17T01:59:49.440Z,5.38
2023-03-17T02:02:22.495Z,5.17
2023-03-17T02:04:52.239Z,4.90
2023-03-17T02:07:22.134Z,5.17
2023-03-17T02:09:49.629Z,4.97
2023-03-17T02:12:16.298Z,4.79
2023-03-17T02:14:44.136Z,5.01
2023-03-17T02:17:10.914Z,5.11
2023-03-17T02:19:38.868Z,4.83
2023-03-17T02:22:05.793Z,4.94
2023-03-17T02:24:40.555Z,5.06
2023-03-17T02:27:13.605Z,5.00
2023-03-17T02:29:41.514Z,4.93
2023-03-17T02:32:09.929Z,5.07
2023-03-17T02:34:36.605Z,5.17
2023-03-17T02:37:03.785Z,5.15
2023-03-17T02:39:30.810Z,4.98
2023-03-17T02:41:57.682Z,5.11
2023-03-17T02:44:24.828Z,4.76
2023-03-17T02:46:51.870Z,5.12
2023-03-17T02:49:18.794Z,4.89
2023-03-17T02:51:45.814Z,4.86
2023-03-17T02:54:12.493Z,5.10
2023-03-17T02:56:39.245Z,4.97
2023-03-17T02:59:06.170Z,4.98
2023-03-17T03:01:33.787Z,4.74
2023-03-17T03:04:00.585Z,4.95
2023-03-17T03:06:27.231Z,4.95
2023-03-17T03:08:53.880Z,4.66
2023-03-17T03:11:20.592Z,4.52
2023-03-17T03:13:47.197Z,4.67
2023-03-17T03:16:13.948Z,4.75
2023-03-17T03:18:40.591Z,4.52
2023-03-17T03:21:07.325Z,4.64
2023-03-17T03:23:34.427Z,4.63
2023-03-17T03:26:01.023Z,4.43
2023-03-17T03:28:27.724Z,4.52
2023-03-17T03:30:54.352Z,4.67
2023-03-17T03:33:20.922Z,4.74
2023-03-17T03:35:47.560Z,4.37
2023-03-17T03:38:14.217Z,4.67
2023-03-17T03:40:41.288Z,4.52
2023-03-17T03:43:21.953Z,4.51
2023-03-17T03:45:49.811Z,4.85
2023-03-17T03:48:16.756Z,4.41
2023-03-17T03:50:43.598Z,4.56
2023-03-17T03:53:10.204Z,4.30
2023-03-17T03:55:37.100Z,4.28
2023-03-17T03:58:03.756Z,4.64
2023-03-17T04:00:30.602Z,4.30
2023-03-17T04:02:57.446Z,4.49
2023-03-17T04:05:24.059Z,4.33
2023-03-17T04:07:50.720Z,4.52
2023-03-17T04:10:18.019Z,4.59
2023-03-17T04:12:45.780Z,4.21
2023-03-17T04:15:16.177Z,4.20
2023-03-17T04:17:44.504Z,4.33
2023-03-17T04:20:13.500Z,4.29
2023-03-17T04:22:41.770Z,4.24
2023-03-17T04:25:10.264Z,4.16
2023-03-17T04:27:37.525Z,4.14
2023-03-17T04:30:04.962Z,4.19
2023-03-17T04:32:32.157Z,4.17
2023-03-17T04:34:58.951Z,4.14
2023-03-17T04:37:26.113Z,4.23
2023-03-17T04:39:53.177Z,4.30
2023-03-17T04:42:19.759Z,4.10
2023-03-17T04:44:46.459Z,3.93
2023-03-17T04:47:13.075Z,4.04
2023-03-17T04:49:40.052Z,3.92
2023-03-17T04:52:06.811Z,3.81
2023-03-17T04:54:33.455Z,3.98
2023-03-17T04:57:00.207Z,3.99
2023-03-17T04:59:27.305Z,3.95
2023-03-17T05:01:54.033Z,3.79
2023-03-17T05:04:31.226Z,4.04
2023-03-17T05:06:59.137Z,3.83
2023-03-17T05:09:26.874Z,3.93
2023-03-17T05:11:53.751Z,3.77
2023-03-17T05:14:20.778Z,3.66
2023-03-17T05:16:48.588Z,3.78
2023-03-17T05:19:16.534Z,3.74
2023-03-17T05:21:43.718Z,4.01
2023-03-17T05:24:10.526Z,3.83
2023-03-17T05:26:37.594Z,4.04
2023-03-17T05:29:04.383Z,4.35
2023-03-17T05:31:31.595Z,3.85
2023-03-17T05:33:59.050Z,3.99
2023-03-17T05:36:25.780Z,3.98
2023-03-17T05:38:52.466Z,4.18
2023-03-17T05:41:19.835Z,4.06
2023-03-17T05:43:46.790Z,4.13
2023-03-17T05:46:13.742Z,4.19
2023-03-17T05:48:40.811Z,3.96
2023-03-17T05:51:08.088Z,3.95
2023-03-17T05:53:36.335Z,4.01
2023-03-17T05:56:03.624Z,4.20
2023-03-17T05:58:30.682Z,4.23
2023-03-17T06:00:57.441Z,4.44
2023-03-17T06:03:24.101Z,4.26
2023-03-17T06:05:50.810Z,4.06
2023-03-17T06:08:17.782Z,4.28
2023-03-17T06:10:44.497Z,4.44
2023-03-17T06:13:11.654Z,4.41
2023-03-17T06:15:38.349Z,4.24
2023-03-17T06:18:05.664Z,4.37
2023-03-17T06:20:33.390Z,4.47
2023-03-17T06:23:05.061Z,4.64
2023-03-17T06:25:33.822Z,4.43
2023-03-17T06:28:02.362Z,4.37
2023-03-17T06:30:30.532Z,4.15
2023-03-17T06:32:57.196Z,4.17
2023-03-17T06:35:24.657Z,4.40
2023-03-17T06:37:51.672Z,4.39
2023-03-17T06:40:18.559Z,4.42
2023-03-17T06:42:45.667Z,4.28
2023-03-17T06:45:12.866Z,4.07
2023-03-17T06:47:39.990Z,4.65
2023-03-17T06:50:09.740Z,4.55
2023-03-17T06:52:37.783Z,4.26
2023-03-17T06:55:06.181Z,4.11
2023-03-17T06:57:33.082Z,4.43
2023-03-17T06:59:59.752Z,4.47
2023-03-17T07:02:26.715Z,4.48
2023-03-17T07:04:53.485Z,4.32
2023-03-17T07:07:21.082Z,4.44
2023-03-17T07:09:48.011Z,3.88
2023-03-17T07:12:14.804Z,4.16
2023-03-17T07:14:41.735Z,4.32
2023-03-17T07:17:13.126Z,4.25
2023-03-17T07:19:40.630Z,4.26
2023-03-17T07:22:09.365Z,4.65
2023-03-17T07:24:36.257Z,4.52
2023-03-17T07:27:02.889Z,4.66
2023-03-17T07:29:29.862Z,4.45
2023-03-17T07:31:57.148Z,4.64
2023-03-17T07:34:24.232Z,4.65
2023-03-17T07:36:51.015Z,4.75
2023-03-17T07:39:17.718Z,4.60
2023-03-17T07:41:44.346Z,4.51
2023-03-17T07:44:11.416Z,4.84
2023-03-17T07:46:38.958Z,4.92
2023-03-17T07:49:06.212Z,4.84
2023-03-17T07:51:33.179Z,4.78
2023-03-17T07:54:03.910Z,4.80
2023-03-17T07:56:32.645Z,4.61
2023-03-17T07:59:00.047Z,4.65
2023-03-17T08:01:27.965Z,4.71
2023-03-17T08:03:56.422Z,4.99
2023-03-17T08:06:25.398Z,4.81
2023-03-17T08:08:55.398Z,5.14
2023-03-17T08:11:23.362Z,5.67
2023-03-17T08:13:51.053Z,4.69
2023-03-17T08:16:17.844Z,5.09
2023-03-17T08:18:44.778Z,4.64
2023-03-17T08:21:11.486Z,5.09
2023-03-17T08:23:40.414Z,5.01
2023-03-17T08:26:07.995Z,5.03
2023-03-17T08:28:35.947Z,5.00
2023-03-17T08:31:14.569Z,4.94
2023-03-17T08:33:42.586Z,4.83
2023-03-17T08:36:11.390Z,5.06
2023-03-17T08:38:40.347Z,4.86
2023-03-17T08:41:09.683Z,5.21
2023-03-17T08:43:37.264Z,5.16
2023-03-17T08:46:29.661Z,4.95
2023-03-17T08:48:58.076Z,4.70
2023-03-17T08:51:28.402Z,4.70
2023-03-17T08:53:56.246Z,4.89
2023-03-17T08:56:23.190Z,4.88
2023-03-17T08:58:51.602Z,4.77
2023-03-17T09:01:20.814Z,4.70
2023-03-17T09:03:48.297Z,4.25
2023-03-17T09:06:15.678Z,4.81
2023-03-17T09:08:47.569Z,5.00
2023-03-17T09:11:17.152Z,4.86
2023-03-17T09:13:46.307Z,5.07
2023-03-17T09:16:17.353Z,4.91
2023-03-17T09:18:46.297Z,4.83
2023-03-17T09:21:14.805Z,4.79
2023-03-17T09:23:42.118Z,5.41
2023-03-17T09:26:09.100Z,5.17
2023-03-17T09:28:35.914Z,5.33
2023-03-17T09:31:06.131Z,5.36
2023-03-17T09:33:32.797Z,5.06
2023-03-17T09:35:59.452Z,5.36
2023-03-17T09:38:27.833Z,5.43
2023-03-17T09:41:09.424Z,5.19
2023-03-17T09:43:39.085Z,5.57
2023-03-17T09:46:43.139Z,5.61
2023-03-17T09:49:25.149Z,5.24
2023-03-17T09:51:52.453Z,5.08
2023-03-17T09:54:34.277Z,5.29
2023-03-17T09:57:12.760Z,5.51
2023-03-17T09:59:44.168Z,4.82
2023-03-17T10:02:29.001Z,5.17
2023-03-17T10:04:57.291Z,5.23
2023-03-17T10:07:43.957Z,5.15
2023-03-17T10:10:19.560Z,5.18
2023-03-17T10:13:21.711Z,5.24
2023-03-17T10:16:10.208Z,5.94
2023-03-17T10:18:46.271Z,5.14
2023-03-17T10:21:21.542Z,5.55
2023-03-17T10:23:48.557Z,5.40
2023-03-17T10:26:25.941Z,5.68
2023-03-17T10:28:54.018Z,5.81
2023-03-17T10:31:29.136Z,5.65
2023-03-17T10:33:59.021Z,5.25
2023-03-17T10:36:38.244Z,5.38
2023-03-17T10:39:08.026Z,5.32
2023-03-17T10:41:41.918Z,5.71
2023-03-17T10:44:20.446Z,5.49
2023-03-17T10:46:55.484Z,5.43
2023-03-17T10:49:24.481Z,5.46
2023-03-17T10:51:53.880Z,5.82
2023-03-17T10:54:24.484Z,5.39
2023-03-17T10:57:01.576Z,5.61
2023-03-17T10:59:32.987Z,5.53
2023-03-17T11:02:05.626Z,5.84
2023-03-17T11:04:39.321Z,5.51
2023-03-17T11:07:17.603Z,5.23
2023-03-17T11:09:48.905Z,5.52
2023-03-17T11:12:29.244Z,5.07
2023-03-17T11:15:11.548Z,5.11
2023-03-17T11:17:40.191Z,5.50
2023-03-17T11:20:19.242Z,5.46
2023-03-17T11:23:13.299Z,5.65
2023-03-17T11:25:44.073Z,5.63
2023-03-17T11:28:22.388Z,5.46
2023-03-17T11:31:01.817Z,5.46
2023-03-17T11:33:31.432Z,5.81
2023-03-17T11:36:09.674Z,5.93
2023-03-17T11:38:45.362Z,6.00
2023-03-17T11:41:36.362Z,5.81
2023-03-17T11:44:06.289Z,5.63
2023-03-17T11:46:42.165Z,5.70
2023-03-17T11:49:28.577Z,5.68
2023-03-17T11:52:04.138Z,5.78
2023-03-17T11:54:59.667Z,5.96
2023-03-17T11:57:46.621Z,5.86
2023-03-17T12:00:35.706Z,6.15
2023-03-17T12:03:25.811Z,6.05
2023-03-17T12:05:59.138Z,6.48
2023-03-17T12:08:52.571Z,6.32
2023-03-17T12:11:26.078Z,6.03
2023-03-17T12:14:03.467Z,6.36
2023-03-17T12:16:38.536Z,6.20
2023-03-17T12:19:11.537Z,6.21
2023-03-17T12:21:47.573Z,6.04
2023-03-17T12:24:20.067Z,6.23
2023-03-17T12:27:01.693Z,6.40
2023-03-17T12:29:52.525Z,6.15
2023-03-17T12:32:39.418Z,6.53
2023-03-17T12:35:15.589Z,6.38
2023-03-17T12:37:42.508Z,6.68
2023-03-17T12:40:26.304Z,6.65
2023-03-17T12:43:15.722Z,6.50
2023-03-17T12:45:54.356Z,6.55
2023-03-17T12:48:51.278Z,6.82
2023-03-17T12:51:56.280Z,7.14
2023-03-17T12:54:35.839Z,6.74
2023-03-17T12:57:14.478Z,6.86
2023-03-17T12:59:47.603Z,7.30
2023-03-17T13:02:23.256Z,7.09
2023-03-17T13:05:00.950Z,7.08
2023-03-17T13:07:53.847Z,7.36
2023-03-17T13:10:40.764Z,7.36
2023-03-17T13:13:12.448Z,7.08
2023-03-17T13:15:39.703Z,7.14
2023-03-17T13:18:12.506Z,7.33
2023-03-17T13:20:57.424Z,7.68
2023-03-17T13:23:41.659Z,7.81
2023-03-17T13:26:12.764Z,7.73
2023-03-17T13:28:40.747Z,7.17
2023-03-17T13:31:32.383Z,7.25
2023-03-17T13:34:11.606Z,7.40
2023-03-17T13:37:00.317Z,7.65
2023-03-17T13:39:56.294Z,7.97
2023-03-17T13:42:38.402Z,7.71
2023-03-17T13:45:32.781Z,8.03
2023-03-17T13:48:27.363Z,7.75
2023-03-17T13:51:15.003Z,7.38
2023-03-17T13:53:56.528Z,7.98
2023-03-17T13:56:46.715Z,7.96
2023-03-17T13:59:19.747Z,7.78
2023-03-17T14:02:19.307Z,7.42
2023-03-17T14:04:58.838Z,8.06
2023-03-17T14:07:39.599Z,8.22
2023-03-17T14:10:08.436Z,8.24
2023-03-17T14:13:04.626Z,8.15
2023-03-17T14:15:48.018Z,7.90
2023-03-17T14:18:16.581Z,8.08
2023-03-17T14:21:08.811Z,7.74
2023-03-17T14:23:36.559Z,8.04
2023-03-17T14:26:05.098Z,8.04
2023-03-17T14:28:34.411Z,8.15
2023-03-17T14:31:04.795Z,8.02
2023-03-17T14:33:38.104Z,8.06
2023-03-17T14:36:14.068Z,8.33
2023-03-17T14:38:49.307Z,8.43
2023-03-17T14:41:23.023Z,8.00
2023-03-17T14:43:52.255Z,8.25
2023-03-17T14:46:25.280Z,8.12
2023-03-17T14:49:02.935Z,7.95
2023-03-17T14:51:36.516Z,8.26
2023-03-17T14:54:20.201Z,8.41
2023-03-17T14:56:51.050Z,8.51
2023-03-17T14:59:24.141Z,8.01
2023-03-17T15:01:56.422Z,7.85
2023-03-17T15:04:25.642Z,7.88
2023-03-17T15:06:55.743Z,7.62
2023-03-17T15:09:37.019Z,7.75
2023-03-17T15:12:16.235Z,7.87
2023-03-17T15:14:45.860Z,7.76
2023-03-17T15:17:27.056Z,7.89
2023-03-17T15:20:05.014Z,7.80
2023-03-17T15:22:34.439Z,7.56
2023-03-17T15:25:18.229Z,7.67
2023-03-17T15:27:46.050Z,7.55
2023-03-17T15:30:13.433Z,7.88
2023-03-17T15:32:40.458Z,7.81
2023-03-17T15:35:11.766Z,8.06
2023-03-17T15:37:38.606Z,8.01
2023-03-17T15:40:06.086Z,7.80
2023-03-17T15:42:36.578Z,7.91
2023-03-17T15:45:04.377Z,7.75
2023-03-17T15:47:34.146Z,7.52
2023-03-17T15:50:16.152Z,8.56
2023-03-17T15:52:44.711Z,7.33
2023-03-17T15:55:19.818Z,7.46
2023-03-17T15:57:54.761Z,7.24
2023-03-17T16:00:23.963Z,7.37
2023-03-17T16:02:56.215Z,7.51
2023-03-17T16:05:31.100Z,7.49
2023-03-17T16:07:58.070Z,7.33
2023-03-17T16:10:30.918Z,7.69
2023-03-17T16:12:58.521Z,7.31
2023-03-17T16:15:28.214Z,6.95
2023-03-17T16:17:59.187Z,7.47
2023-03-17T16:20:40.554Z,7.48
2023-03-17T16:23:29.046Z,7.86
2023-03-17T16:26:11.766Z,7.76
2023-03-17T16:28:41.761Z,7.33
2023-03-17T16:31:22.149Z,8.35
2023-03-17T16:33:50.641Z,7.99
2023-03-17T16:36:19.437Z,7.72
2023-03-17T16:38:46.450Z,8.50
2023-03-17T16:41:22.286Z,8.69
2023-03-17T16:43:58.266Z,8.43
2023-03-17T16:46:28.086Z,8.22
2023-03-17T16:48:56.078Z,8.93
2023-03-17T16:51:24.752Z,9.19
2023-03-17T16:53:51.414Z,9.21
2023-03-17T16:56:21.344Z,9.10
2023-03-17T16:58:48.847Z,8.99
2023-03-17T17:01:20.012Z,9.51
2023-03-17T17:03:47.684Z,8.97
2023-03-17T17:06:15.359Z,9.12
2023-03-17T17:08:44.023Z,9.08
2023-03-17T17:11:13.004Z,9.06
2023-03-17T17:13:44.758Z,9.13
2023-03-17T17:16:26.526Z,9.23
2023-03-17T17:18:53.821Z,9.17
2023-03-17T17:21:20.768Z,9.32
2023-03-17T17:23:47.522Z,9.66
2023-03-17T17:26:14.221Z,9.38
2023-03-17T17:28:40.868Z,9.51
2023-03-17T17:31:08.834Z,9.35
2023-03-17T17:33:37.312Z,9.90
2023-03-17T17:36:07.383Z,9.88
2023-03-17T17:38:34.032Z,10.46
2023-03-17T17:41:05.789Z,11.31
2023-03-17T17:43:33.036Z,12.45
2023-03-17T17:45:59.989Z,13.41
2023-03-17T17:48:28.391Z,13.92
2023-03-17T17:50:56.971Z,14.47
2023-03-17T17:53:23.756Z,14.55
2023-03-17T17:55:51.787Z,13.83
2023-03-17T17:58:23.679Z,13.63
2023-03-17T18:00:52.581Z,13.44
2023-03-17T18:03:24.531Z,12.97
2023-03-17T18:05:56.232Z,12.38
2023-03-17T18:08:24.096Z,13.51
2023-03-17T18:10:52.110Z,15.13
2023-03-17T18:13:19.251Z,14.19
2023-03-17T18:15:46.008Z,14.42
2023-03-17T18:18:12.669Z,14.47
2023-03-17T18:20:40.105Z,14.62
2023-03-17T18:23:06.901Z,14.35
2023-03-17T18:25:33.733Z,14.19
2023-03-17T18:28:01.424Z,14.14
2023-03-17T18:30:31.608Z,13.35
2023-03-17T18:33:13.289Z,13.33
2023-03-17T18:35:41.123Z,13.76
2023-03-17T18:38:08.595Z,13.28
2023-03-17T18:40:36.092Z,13.44
2023-03-17T18:43:03.205Z,13.26
2023-03-17T18:45:29.791Z,13.74
2023-03-17T18:47:56.433Z,13.37
2023-03-17T18:50:23.244Z,13.55
2023-03-17T18:52:50.888Z,13.42
2023-03-17T18:55:18.015Z,13.66
2023-03-17T18:57:46.310Z,14.22
2023-03-17T19:00:16.477Z,14.18
2023-03-17T19:02:43.168Z,14.21
2023-03-17T19:05:11.457Z,14.55
2023-03-17T19:07:40.275Z,14.45
2023-03-17T19:10:08.435Z,15.40
2023-03-17T19:12:35.496Z,15.00
2023-03-17T19:15:02.092Z,14.88
2023-03-17T19:17:28.784Z,15.20
2023-03-17T19:19:55.790Z,17.07
2023-03-17T19:22:22.988Z,17.94
2023-03-17T19:24:50.253Z,16.50
2023-03-17T19:27:17.557Z,16.08
2023-03-17T19:29:44.123Z,15.51
2023-03-17T19:32:10.875Z,14.83
2023-03-17T19:34:37.509Z,14.35
2023-03-17T19:37:04.227Z,14.15
2023-03-17T19:39:31.432Z,13.05
2023-03-17T19:41:59.191Z,11.92
2023-03-17T19:44:26.571Z,11.41
2023-03-17T19:46:53.147Z,11.12
2023-03-17T19:49:21.165Z,10.44
2023-03-17T19:51:49.031Z,10.44
2023-03-17T19:54:16.495Z,9.83
2023-03-17T19:56:43.088Z,8.75
2023-03-17T19:59:09.681Z,9.14
2023-03-17T20:01:38.132Z,9.30
2023-03-17T20:04:07.000Z,8.97
2023-03-17T20:06:34.557Z,9.18
2023-03-17T20:09:03.970Z,10.84
2023-03-17T20:11:33.797Z,10.99
2023-03-17T20:14:02.016Z,11.40
2023-03-17T20:16:31.884Z,11.11
2023-03-17T20:18:58.491Z,9.67
2023-03-17T20:21:25.471Z,10.32
2023-03-17T20:23:52.490Z,10.43
2023-03-17T20:26:19.952Z,9.80
2023-03-17T20:28:47.450Z,10.75
2023-03-17T20:31:14.175Z,9.91
2023-03-17T20:33:41.181Z,10.34
2023-03-17T20:36:08.344Z,12.91
2023-03-17T20:38:36.894Z,14.61
2023-03-17T20:41:09.974Z,15.71
2023-03-17T20:43:37.446Z,11.77
2023-03-17T20:46:05.967Z,10.68
2023-03-17T20:48:32.962Z,9.87
2023-03-17T20:51:00.305Z,9.68
2023-03-17T20:53:27.170Z,11.19
2023-03-17T20:55:55.458Z,11.09
2023-03-17T20:58:22.774Z,11.08
2023-03-17T21:00:51.032Z,10.66
2023-03-17T21:03:20.740Z,10.62
2023-03-17T21:05:47.603Z,10.08
2023-03-17T21:08:14.474Z,10.49
2023-03-17T21:10:41.186Z,10.63
2023-03-17T21:13:07.846Z,10.93
2023-03-17T21:15:34.465Z,10.54
2023-03-17T21:18:01.055Z,10.71
2023-03-17T21:20:28.018Z,10.81
2023-03-17T21:22:54.742Z,10.59
2023-03-17T21:25:21.438Z,10.83
2023-03-17T21:27:48.761Z,10.47
2023-03-17T21:30:15.727Z,10.60
2023-03-17T21:32:42.586Z,11.10
2023-03-17T21:35:10.427Z,12.35
2023-03-17T21:37:37.280Z,15.52
2023-03-17T21:40:08.143Z,16.23
2023-03-17T21:42:35.052Z,15.46
2023-03-17T21:45:01.679Z,14.89
2023-03-17T21:47:29.982Z,13.39
2023-03-17T21:49:57.963Z,13.16
2023-03-17T21:52:25.486Z,13.03
2023-03-17T21:54:52.148Z,12.30
2023-03-17T21:57:18.782Z,12.79
2023-03-17T21:59:45.692Z,13.05
2023-03-17T22:02:12.726Z,12.26
2023-03-17T22:04:41.538Z,11.96
2023-03-17T22:07:08.525Z,12.23
2023-03-17T22:09:36.014Z,11.49
2023-03-17T22:12:03.713Z,11.44
2023-03-17T22:14:31.216Z,11.46
2023-03-17T22:16:57.846Z,11.38
2023-03-17T22:19:24.506Z,11.17
2023-03-17T22:21:51.686Z,11.15
2023-03-17T22:24:18.814Z,11.46
2023-03-17T22:26:45.455Z,11.76
2023-03-17T22:29:12.481Z,11.69
2023-03-17T22:31:39.185Z,11.74
2023-03-17T22:34:06.617Z,12.96
2023-03-17T22:36:33.630Z,12.83
2023-03-17T22:39:00.255Z,12.18
2023-03-17T22:41:29.074Z,12.37
2023-03-17T22:43:56.811Z,12.05
2023-03-17T22:46:24.528Z,11.97
2023-03-17T22:48:52.481Z,11.79
2023-03-17T22:51:24.245Z,11.82
2023-03-17T22:53:51.728Z,11.53
2023-03-17T22:56:19.638Z,12.08
2023-03-17T22:58:46.860Z,11.60
2023-03-17T23:01:16.411Z,11.79
2023-03-17T23:03:43.670Z,12.20
2023-03-17T23:06:11.501Z,11.58
2023-03-17T23:08:40.025Z,11.66
2023-03-17T23:11:10.588Z,12.25
2023-03-17T23:13:40.382Z,12.30
2023-03-17T23:16:08.402Z,12.14
2023-03-17T23:18:35.122Z,12.06
2023-03-17T23:21:03.846Z,12.53
2023-03-17T23:23:30.601Z,12.41
2023-03-17T23:25:57.774Z,13.04
2023-03-17T23:28:25.017Z,12.40
2023-03-17T23:30:53.067Z,12.65
2023-03-17T23:33:22.665Z,12.89
2023-03-17T23:35:50.458Z,12.61
2023-03-17T23:38:19.562Z,13.23
2023-03-17T23:40:47.190Z,12.84
2023-03-17T23:43:14.377Z,13.62
2023-03-17T23:45:41.945Z,12.75
2023-03-17T23:48:09.986Z,12.88
2023-03-17T23:50:38.720Z,13.08
2023-03-17T23:53:05.352Z,13.33
2023-03-17T23:55:31.936Z,13.29
2023-03-17T23:57:58.594Z,13.58
